createdAt,value
2019-03-21T00:01:02.704Z,6.87
2019-03-21T00:03:31.682Z,6.12
2019-03-21T00:06:00.744Z,6.72
2019-03-21T00:08:29.755Z,7.20
2019-03-21T00:11:27.153Z,8.13
2019-03-21T00:14:06.394Z,8.05
2019-03-21T00:16:26.851Z,8.00
2019-03-21T00:18:55.938Z,7.12
2019-03-21T00:21:25.137Z,5.97
2019-03-21T00:23:54.019Z,6.17
2019-03-21T00:26:23.237Z,6.15
2019-03-21T00:28:52.418Z,6.72
2019-03-21T00:31:21.296Z,8.23
2019-03-21T00:33:50.199Z,7.30
2019-03-21T00:36:19.307Z,6.62
2019-03-21T00:38:48.506Z,7.55
2019-03-21T00:41:17.382Z,7.15
2019-03-21T00:43:46.474Z,6.72
2019-03-21T00:46:15.583Z,6.40
2019-03-21T00:48:45.154Z,5.97
2019-03-21T00:51:14.495Z,5.60
2019-03-21T00:53:43.484Z,5.97
2019-03-21T00:56:12.583Z,5.95
2019-03-21T00:58:41.773Z,5.87
2019-03-21T01:01:11.342Z,6.03
2019-03-21T01:03:40.381Z,5.87
2019-03-21T01:06:10.593Z,6.37
2019-03-21T01:08:39.592Z,6.45
2019-03-21T01:11:08.685Z,5.80
2019-03-21T01:13:39.924Z,4.80
2019-03-21T01:16:09.120Z,5.12
2019-03-21T01:21:41.065Z,6.40
2019-03-21T01:24:10.015Z,7.25
2019-03-21T01:26:39.207Z,7.05
2019-03-21T01:29:08.205Z,7.35
2019-03-21T01:31:37.288Z,7.15
2019-03-21T01:34:06.380Z,6.90
2019-03-21T01:36:35.270Z,6.75
2019-03-21T01:39:06.107Z,6.60
2019-03-21T01:41:35.392Z,5.83
2019-03-21T01:44:04.713Z,6.05
2019-03-21T01:46:36.521Z,5.97
2019-03-21T01:49:08.732Z,5.47
2019-03-21T01:51:39.061Z,5.55
2019-03-21T01:54:07.961Z,5.95
2019-03-21T01:56:36.851Z,6.15
2019-03-21T01:59:06.030Z,7.08
2019-03-21T02:01:35.032Z,7.03
2019-03-21T02:04:04.326Z,6.83
2019-03-21T02:06:33.203Z,7.30
2019-03-21T02:09:01.992Z,7.05
2019-03-21T02:11:31.107Z,7.42
2019-03-21T02:13:59.997Z,7.22
2019-03-21T02:16:29.003Z,8.25
2019-03-21T02:18:58.086Z,8.45
2019-03-21T02:21:27.179Z,8.48
2019-03-21T02:23:56.236Z,6.85
2019-03-21T02:26:25.261Z,6.80
2019-03-21T02:28:54.366Z,6.65
2019-03-21T02:31:23.239Z,6.20
2019-03-21T02:33:52.335Z,5.70
2019-03-21T02:36:21.244Z,6.08
2019-03-21T02:38:50.322Z,7.78
2019-03-21T02:41:19.534Z,6.95
2019-03-21T02:43:48.424Z,6.53
2019-03-21T02:46:38.991Z,6.22
2019-03-21T02:49:07.901Z,6.10
2019-03-21T02:51:37.992Z,6.12
2019-03-21T02:54:07.117Z,5.53
2019-03-21T02:56:36.003Z,6.55
2019-03-21T02:59:04.971Z,6.25
2019-03-21T03:01:33.883Z,6.78
2019-03-21T03:04:02.897Z,6.12
2019-03-21T03:06:31.774Z,6.67
2019-03-21T03:09:00.994Z,6.00
2019-03-21T03:11:29.759Z,5.50
2019-03-21T03:13:59.659Z,7.12
2019-03-21T03:16:28.668Z,6.15
2019-03-21T03:18:57.663Z,5.95
2019-03-21T03:21:26.460Z,6.87
2019-03-21T03:23:55.757Z,6.80
2019-03-21T03:26:24.748Z,6.67
2019-03-21T03:28:53.629Z,7.92
2019-03-21T03:31:22.615Z,8.53
2019-03-21T03:33:51.742Z,7.10
2019-03-21T03:36:20.694Z,8.10
2019-03-21T03:38:49.819Z,6.72
2019-03-21T03:41:20.251Z,7.47
2019-03-21T03:43:49.123Z,7.22
2019-03-21T03:46:18.123Z,7.05
2019-03-21T03:48:47.002Z,6.87
2019-03-21T03:51:16.146Z,7.58
2019-03-21T03:53:45.296Z,6.50
2019-03-21T03:56:14.297Z,6.37
2019-03-21T03:58:48.914Z,6.90
2019-03-21T04:01:17.920Z,6.92
2019-03-21T04:03:46.806Z,6.50
2019-03-21T04:06:17.338Z,5.40
2019-03-21T04:08:46.341Z,5.05
2019-03-21T04:11:15.838Z,4.83
2019-03-21T04:13:44.727Z,7.33
2019-03-21T04:16:14.031Z,6.72
2019-03-21T04:18:43.020Z,6.45
2019-03-21T04:21:14.066Z,7.47
2019-03-21T04:23:43.356Z,6.08
2019-03-21T04:26:18.289Z,6.00
2019-03-21T04:28:47.076Z,5.70
2019-03-21T04:31:16.064Z,5.85
2019-03-21T04:33:46.549Z,5.35
2019-03-21T04:36:15.509Z,5.15
2019-03-21T04:38:44.370Z,5.72
2019-03-21T04:41:13.682Z,6.53
2019-03-21T04:43:42.559Z,6.87
2019-03-21T04:46:11.663Z,6.65
2019-03-21T04:48:40.751Z,6.83
2019-03-21T04:51:09.751Z,5.95
2019-03-21T04:53:59.648Z,5.08
2019-03-21T04:56:28.644Z,5.37
2019-03-21T04:58:57.765Z,5.92
2019-03-21T05:01:27.037Z,6.80
2019-03-21T05:03:56.026Z,5.28
2019-03-21T05:06:25.026Z,5.42
2019-03-21T05:08:54.118Z,6.33
2019-03-21T05:11:22.956Z,7.17
2019-03-21T05:13:51.987Z,7.50
2019-03-21T05:16:20.957Z,5.80
2019-03-21T05:18:56.025Z,6.37
2019-03-21T05:21:25.549Z,5.70
2019-03-21T05:23:54.408Z,5.58
2019-03-21T05:26:23.308Z,6.42
2019-03-21T05:28:52.202Z,5.67
2019-03-21T05:31:24.031Z,6.80
2019-03-21T05:33:53.038Z,7.67
2019-03-21T05:36:22.030Z,10.55
2019-03-21T05:38:50.920Z,8.08
2019-03-21T05:41:19.922Z,9.10
2019-03-21T05:43:54.613Z,8.38
2019-03-21T05:46:26.951Z,8.53
2019-03-21T05:48:54.172Z,8.23
2019-03-21T05:51:23.521Z,8.65
2019-03-21T05:53:52.581Z,9.23
2019-03-21T05:56:21.962Z,8.48
2019-03-21T05:58:50.953Z,7.62
2019-03-21T06:01:19.725Z,9.30
2019-03-21T06:03:50.183Z,9.23
2019-03-21T06:06:25.208Z,9.25
2019-03-21T06:08:54.419Z,9.73
2019-03-21T06:11:23.611Z,8.98
2019-03-21T06:13:52.599Z,8.18
2019-03-21T06:16:21.601Z,7.55
2019-03-21T06:19:08.620Z,7.10
2019-03-21T06:21:50.254Z,6.37
2019-03-21T06:24:37.215Z,7.15
2019-03-21T06:27:31.703Z,7.47
2019-03-21T06:30:00.589Z,6.58
2019-03-21T06:32:29.369Z,6.45
2019-03-21T06:34:58.248Z,5.75
2019-03-21T06:37:28.869Z,6.15
2019-03-21T06:39:57.969Z,6.15
2019-03-21T06:42:26.993Z,6.90
2019-03-21T06:44:55.871Z,6.20
2019-03-21T06:47:24.763Z,6.17
2019-03-21T06:49:53.751Z,7.20
2019-03-21T06:52:23.673Z,6.28
2019-03-21T06:54:52.533Z,5.87
2019-03-21T06:57:21.652Z,8.80
2019-03-21T06:59:50.653Z,7.10
2019-03-21T07:02:19.548Z,6.05
2019-03-21T07:04:48.646Z,6.92
2019-03-21T07:07:17.525Z,8.90
2019-03-21T07:09:46.637Z,8.00
2019-03-21T07:12:15.829Z,8.95
2019-03-21T07:14:44.835Z,10.30
2019-03-21T07:17:13.917Z,8.58
2019-03-21T07:19:43.282Z,9.70
2019-03-21T07:22:12.475Z,9.50
2019-03-21T07:24:41.617Z,9.43
2019-03-21T07:27:10.612Z,8.65
2019-03-21T07:29:39.679Z,12.90
2019-03-21T07:32:08.802Z,13.85
2019-03-21T07:34:37.884Z,12.03
2019-03-21T07:37:06.875Z,11.55
2019-03-21T07:39:35.760Z,13.88
2019-03-21T07:42:05.237Z,15.00
2019-03-21T07:44:53.252Z,13.32
2019-03-21T07:47:22.631Z,11.20
2019-03-21T07:49:51.503Z,13.58
2019-03-21T07:52:20.616Z,10.48
2019-03-21T07:54:49.607Z,9.08
2019-03-21T07:57:18.485Z,14.13
2019-03-21T07:59:47.488Z,14.40
2019-03-21T08:02:16.402Z,13.60
2019-03-21T08:04:45.577Z,14.95
2019-03-21T08:07:14.669Z,16.02
2019-03-21T08:09:43.976Z,10.68
2019-03-21T08:12:13.176Z,18.37
2019-03-21T08:14:42.249Z,17.10
2019-03-21T08:17:11.362Z,18.62
2019-03-21T08:19:40.447Z,19.77
2019-03-21T08:22:09.462Z,17.92
2019-03-21T08:24:40.163Z,16.65
2019-03-21T08:27:09.289Z,16.27
2019-03-21T08:29:38.123Z,18.90
2019-03-21T08:32:07.481Z,20.30
2019-03-21T08:34:36.451Z,22.70
2019-03-21T08:37:05.441Z,19.35
2019-03-21T08:39:55.229Z,18.85
2019-03-21T08:42:24.315Z,14.68
2019-03-21T08:44:53.438Z,16.17
2019-03-21T08:47:22.813Z,13.95
2019-03-21T08:49:52.090Z,12.73
2019-03-21T08:52:21.117Z,11.70
2019-03-21T08:54:50.093Z,15.23
2019-03-21T08:57:18.990Z,14.10
2019-03-21T08:59:48.883Z,10.82
2019-03-21T09:02:18.129Z,15.85
2019-03-21T09:04:47.354Z,15.80
2019-03-21T09:07:16.630Z,13.83
2019-03-21T09:09:45.709Z,11.00
2019-03-21T09:12:14.801Z,12.43
2019-03-21T09:14:44.329Z,9.78
2019-03-21T09:17:13.392Z,11.68
2019-03-21T09:19:42.617Z,11.70
2019-03-21T09:22:11.600Z,12.82
2019-03-21T09:24:40.800Z,10.90
2019-03-21T09:27:11.634Z,9.43
2019-03-21T09:29:52.804Z,10.40
2019-03-21T09:32:12.586Z,10.63
2019-03-21T09:34:41.490Z,11.20
2019-03-21T09:37:10.411Z,12.25
2019-03-21T09:39:39.391Z,11.50
2019-03-21T09:42:08.234Z,13.72
2019-03-21T09:44:37.346Z,9.80
2019-03-21T09:47:06.700Z,10.93
2019-03-21T09:49:35.845Z,10.32
2019-03-21T09:52:04.931Z,14.03
2019-03-21T09:54:34.123Z,13.75
2019-03-21T09:57:03.125Z,10.72
2019-03-21T09:59:32.225Z,13.03
2019-03-21T10:02:01.327Z,10.20
2019-03-21T10:04:30.425Z,10.50
2019-03-21T10:06:59.287Z,10.05
2019-03-21T10:09:28.501Z,13.50
2019-03-21T10:11:58.743Z,9.90
2019-03-21T10:14:27.577Z,11.63
2019-03-21T10:16:56.928Z,10.58
2019-03-21T10:19:26.025Z,11.38
2019-03-21T10:21:54.865Z,10.23
2019-03-21T10:24:24.100Z,11.97
2019-03-21T10:26:53.389Z,12.30
2019-03-21T10:29:22.371Z,12.18
2019-03-21T10:31:52.633Z,12.70
2019-03-21T10:34:21.721Z,10.93
2019-03-21T10:36:50.827Z,10.98
2019-03-21T10:39:20.005Z,11.15
2019-03-21T10:41:48.973Z,11.85
2019-03-21T10:44:17.867Z,12.30
2019-03-21T10:46:47.078Z,10.93
2019-03-21T10:49:16.268Z,11.78
2019-03-21T10:51:54.377Z,12.33
2019-03-21T10:54:15.952Z,12.82
2019-03-21T10:56:44.866Z,9.45
2019-03-21T10:59:13.947Z,10.28
2019-03-21T11:01:43.193Z,13.55
2019-03-21T11:04:12.270Z,10.98
2019-03-21T11:06:41.350Z,16.65
2019-03-21T11:09:10.563Z,12.58
2019-03-21T11:11:39.954Z,11.33
2019-03-21T11:14:08.859Z,12.60
2019-03-21T11:16:37.863Z,12.05
2019-03-21T11:19:06.943Z,13.25
2019-03-21T11:21:35.953Z,10.38
2019-03-21T11:24:05.156Z,10.95
2019-03-21T11:26:34.239Z,10.93
2019-03-21T11:29:03.124Z,12.85
2019-03-21T11:31:32.433Z,12.50
2019-03-21T11:34:01.313Z,14.07
2019-03-21T11:36:38.054Z,10.13
2019-03-21T11:39:01.042Z,10.35
2019-03-21T11:41:30.047Z,14.83
2019-03-21T11:43:59.153Z,13.43
2019-03-21T11:46:29.002Z,16.00
2019-03-21T11:48:58.168Z,11.75
2019-03-21T11:51:27.155Z,12.13
2019-03-21T11:53:56.639Z,15.15
2019-03-21T11:56:25.513Z,12.35
2019-03-21T11:58:54.634Z,9.13
2019-03-21T12:01:23.719Z,11.53
2019-03-21T12:03:52.709Z,13.78
2019-03-21T12:06:21.699Z,14.20
2019-03-21T12:08:50.808Z,13.80
2019-03-21T12:11:21.265Z,13.58
2019-03-21T12:13:50.774Z,17.37
2019-03-21T12:16:19.773Z,14.28
2019-03-21T12:18:50.250Z,14.30
2019-03-21T12:21:23.641Z,15.03
2019-03-21T12:23:52.643Z,13.28
2019-03-21T12:26:21.752Z,13.62
2019-03-21T12:28:50.625Z,13.28
2019-03-21T12:31:19.833Z,12.68
2019-03-21T12:33:48.933Z,13.32
2019-03-21T12:36:19.162Z,17.23
2019-03-21T12:38:48.324Z,15.15
2019-03-21T12:41:17.456Z,15.48
2019-03-21T12:43:46.333Z,17.23
2019-03-21T12:46:15.533Z,18.07
2019-03-21T12:48:44.515Z,16.02
2019-03-21T12:51:13.757Z,12.80
2019-03-21T12:53:43.124Z,12.55
2019-03-21T12:56:12.133Z,14.80
2019-03-21T12:58:41.301Z,12.78
2019-03-21T13:01:10.399Z,16.17
2019-03-21T13:03:39.424Z,13.00
2019-03-21T13:06:08.513Z,15.83
2019-03-21T13:08:37.592Z,14.98
2019-03-21T13:11:06.595Z,14.13
2019-03-21T13:13:35.543Z,13.13
2019-03-21T13:16:04.664Z,15.15
2019-03-21T13:18:34.693Z,11.45
2019-03-21T13:21:03.694Z,14.40
2019-03-21T13:23:32.761Z,15.30
2019-03-21T13:26:01.715Z,14.53
2019-03-21T13:28:30.773Z,10.93
2019-03-21T13:30:59.853Z,12.85
2019-03-21T13:33:28.973Z,11.68
2019-03-21T13:35:57.935Z,11.97
2019-03-21T13:38:27.162Z,14.28
2019-03-21T13:40:56.159Z,11.80
2019-03-21T13:43:25.234Z,12.95
2019-03-21T13:45:54.525Z,10.25
2019-03-21T13:48:23.639Z,12.00
2019-03-21T13:50:52.509Z,12.30
2019-03-21T13:53:21.609Z,13.58
2019-03-21T13:55:50.484Z,13.68
2019-03-21T13:58:19.393Z,14.53
2019-03-21T14:00:48.514Z,10.08
2019-03-21T14:03:24.943Z,15.45
2019-03-21T14:05:48.001Z,13.53
2019-03-21T14:08:17.213Z,14.18
2019-03-21T14:10:46.190Z,14.13
2019-03-21T14:13:15.194Z,13.32
2019-03-21T14:15:44.592Z,11.95
2019-03-21T14:18:13.894Z,13.60
2019-03-21T14:20:42.754Z,11.88
2019-03-21T14:23:16.876Z,11.63
2019-03-21T14:25:42.613Z,11.83
2019-03-21T14:28:11.605Z,15.20
2019-03-21T14:30:40.907Z,12.23
2019-03-21T14:33:11.227Z,12.75
2019-03-21T14:35:40.235Z,11.88
2019-03-21T14:38:09.295Z,12.65
2019-03-21T14:40:38.308Z,13.85
2019-03-21T14:43:07.290Z,12.50
2019-03-21T14:45:36.466Z,10.93
2019-03-21T14:48:05.621Z,11.40
2019-03-21T14:50:34.713Z,11.90
2019-03-21T14:53:03.681Z,9.85
2019-03-21T14:55:32.541Z,11.70
2019-03-21T14:58:01.532Z,11.22
2019-03-21T15:00:30.422Z,12.40
2019-03-21T15:02:59.215Z,14.55
2019-03-21T15:05:28.132Z,9.05
2019-03-21T15:07:57.111Z,11.63
2019-03-21T15:10:26.030Z,10.15
2019-03-21T15:12:55.016Z,11.65
2019-03-21T15:15:24.109Z,12.28
2019-03-21T15:17:52.974Z,12.47
2019-03-21T15:20:22.097Z,11.20
2019-03-21T15:22:51.310Z,14.00
2019-03-21T15:25:20.186Z,10.98
2019-03-21T15:27:49.178Z,11.95
2019-03-21T15:30:20.079Z,11.10
2019-03-21T15:32:49.221Z,11.88
2019-03-21T15:35:19.018Z,9.98
2019-03-21T15:37:48.121Z,10.43
2019-03-21T15:40:17.308Z,13.55
2019-03-21T15:42:46.200Z,9.03
2019-03-21T15:45:22.656Z,11.00
2019-03-21T15:47:48.181Z,10.53
2019-03-21T15:50:38.096Z,11.38
2019-03-21T15:53:08.473Z,10.45
2019-03-21T15:55:37.493Z,10.78
2019-03-21T15:58:06.804Z,10.78
2019-03-21T16:00:40.721Z,9.93
2019-03-21T16:03:12.282Z,10.82
2019-03-21T16:05:41.874Z,10.10
2019-03-21T16:08:11.183Z,8.98
2019-03-21T16:10:40.453Z,11.45
2019-03-21T16:13:09.584Z,10.10
2019-03-21T16:15:38.854Z,8.68
2019-03-21T16:18:08.163Z,10.98
2019-03-21T16:20:37.279Z,10.88
2019-03-21T16:23:06.355Z,9.58
2019-03-21T16:25:35.669Z,9.38
2019-03-21T16:28:04.610Z,9.90
2019-03-21T16:30:33.642Z,9.13
2019-03-21T16:33:02.849Z,8.55
2019-03-21T16:35:31.711Z,11.12
2019-03-21T16:38:00.923Z,10.93
2019-03-21T16:40:30.208Z,11.40
2019-03-21T16:42:59.820Z,11.30
2019-03-21T16:45:28.923Z,10.18
2019-03-21T16:47:58.023Z,10.15
2019-03-21T16:50:28.953Z,9.20
2019-03-21T16:52:58.381Z,7.55
2019-03-21T16:55:27.361Z,8.58
2019-03-21T16:57:56.461Z,9.63
2019-03-21T17:00:25.763Z,9.05
2019-03-21T17:02:55.139Z,7.90
2019-03-21T17:05:24.269Z,8.23
2019-03-21T17:07:53.669Z,8.85
2019-03-21T17:10:22.649Z,9.63
2019-03-21T17:12:51.525Z,8.68
2019-03-21T17:15:20.868Z,8.95
2019-03-21T17:17:49.827Z,9.70
2019-03-21T17:20:18.938Z,10.43
2019-03-21T17:23:08.821Z,9.63
2019-03-21T17:25:37.902Z,9.83
2019-03-21T17:28:07.003Z,9.78
2019-03-21T17:30:36.179Z,9.15
2019-03-21T17:33:05.291Z,9.15
2019-03-21T17:35:34.382Z,11.30
2019-03-21T17:38:03.583Z,10.43
2019-03-21T17:40:32.684Z,8.90
2019-03-21T17:43:01.682Z,11.05
2019-03-21T17:45:30.982Z,9.80
2019-03-21T17:48:00.081Z,9.15
2019-03-21T17:50:29.256Z,10.20
2019-03-21T17:52:58.526Z,8.68
2019-03-21T17:55:27.767Z,9.28
2019-03-21T17:57:56.856Z,10.30
2019-03-21T18:00:27.581Z,10.50
2019-03-21T18:02:56.788Z,9.03
2019-03-21T18:05:25.796Z,9.10
2019-03-21T18:07:54.967Z,8.65
2019-03-21T18:10:32.166Z,10.63
2019-03-21T18:13:01.460Z,10.63
2019-03-21T18:15:30.562Z,9.53
2019-03-21T18:17:59.660Z,9.93
2019-03-21T18:20:29.161Z,10.53
2019-03-21T18:22:58.154Z,10.35
2019-03-21T18:25:27.260Z,10.05
2019-03-21T18:27:56.429Z,9.85
2019-03-21T18:30:25.542Z,11.10
2019-03-21T18:32:54.632Z,11.97
2019-03-21T18:35:23.819Z,10.40
2019-03-21T18:37:52.821Z,11.20
2019-03-21T18:40:21.921Z,10.38
2019-03-21T18:42:51.114Z,11.08
2019-03-21T18:45:20.105Z,10.23
2019-03-21T18:47:49.216Z,10.53
2019-03-21T18:50:18.496Z,9.53
2019-03-21T18:52:47.472Z,9.55
2019-03-21T18:55:16.588Z,9.88
2019-03-21T18:57:45.883Z,10.18
2019-03-21T19:00:17.756Z,9.90
2019-03-21T19:02:46.847Z,10.43
2019-03-21T19:05:15.936Z,9.83
2019-03-21T19:07:44.937Z,9.48
2019-03-21T19:10:14.656Z,9.28
2019-03-21T19:12:43.837Z,9.28
2019-03-21T19:15:19.501Z,9.80
2019-03-21T19:17:48.787Z,9.35
2019-03-21T19:20:19.531Z,10.28
2019-03-21T19:22:48.733Z,10.00
2019-03-21T19:25:19.414Z,10.23
2019-03-21T19:27:48.972Z,9.35
2019-03-21T19:30:24.416Z,9.03
2019-03-21T19:32:53.290Z,9.25
2019-03-21T19:35:23.011Z,9.35
2019-03-21T19:37:52.208Z,9.13
2019-03-21T19:40:21.506Z,9.10
2019-03-21T19:42:50.506Z,8.75
2019-03-21T19:45:19.992Z,8.95
2019-03-21T19:47:49.094Z,8.68
2019-03-21T19:50:19.116Z,9.33
2019-03-21T19:52:48.418Z,8.60
2019-03-21T19:55:25.839Z,9.03
2019-03-21T19:57:48.944Z,8.40
2019-03-21T20:00:25.477Z,8.45
2019-03-21T20:02:54.411Z,7.28
2019-03-21T20:05:24.485Z,8.43
2019-03-21T20:07:53.686Z,9.25
2019-03-21T20:10:23.099Z,9.15
2019-03-21T20:12:52.202Z,7.62
2019-03-21T20:15:26.908Z,6.45
2019-03-21T20:17:56.811Z,7.08
2019-03-21T20:20:25.831Z,7.55
2019-03-21T20:22:55.126Z,7.60
2019-03-21T20:25:24.222Z,7.30
2019-03-21T20:27:53.324Z,6.83
2019-03-21T20:30:23.022Z,8.35
2019-03-21T20:32:55.191Z,7.87
2019-03-21T20:35:24.196Z,6.60
2019-03-21T20:37:53.173Z,6.53
2019-03-21T20:40:22.176Z,7.17
2019-03-21T20:42:51.170Z,7.47
2019-03-21T20:45:20.923Z,6.70
2019-03-21T20:47:50.076Z,7.53
2019-03-21T20:50:19.449Z,7.75
2019-03-21T20:52:48.469Z,7.28
2019-03-21T20:55:17.559Z,8.10
2019-03-21T20:57:46.446Z,7.85
2019-03-21T21:00:20.550Z,8.30
2019-03-21T21:02:50.316Z,7.33
2019-03-21T21:05:19.497Z,8.58
2019-03-21T21:07:48.786Z,8.33
2019-03-21T21:10:17.778Z,8.18
2019-03-21T21:12:46.885Z,8.68
2019-03-21T21:15:17.183Z,8.73
2019-03-21T21:17:48.231Z,8.38
2019-03-21T21:20:17.893Z,7.83
2019-03-21T21:22:48.167Z,7.83
2019-03-21T21:25:17.266Z,7.65
2019-03-21T21:27:49.774Z,6.33
2019-03-21T21:30:19.447Z,6.80
2019-03-21T21:32:48.554Z,7.40
2019-03-21T21:35:17.758Z,7.00
2019-03-21T21:37:47.144Z,7.40
2019-03-21T21:40:17.376Z,6.80
2019-03-21T21:42:47.642Z,6.42
2019-03-21T21:45:17.551Z,6.55
2019-03-21T21:47:46.706Z,7.70
2019-03-21T21:50:16.792Z,6.70
2019-03-21T21:52:45.913Z,5.95
2019-03-21T21:55:14.796Z,6.03
2019-03-21T21:57:45.237Z,6.15
2019-03-21T22:00:23.734Z,6.20
2019-03-21T22:02:52.628Z,8.13
2019-03-21T22:05:23.686Z,7.33
2019-03-21T22:07:52.871Z,7.20
2019-03-21T22:10:21.749Z,6.45
2019-03-21T22:12:51.782Z,6.42
2019-03-21T22:15:20.981Z,6.95
2019-03-21T22:17:49.866Z,8.08
2019-03-21T22:20:19.050Z,9.53
2019-03-21T22:22:48.053Z,7.33
2019-03-21T22:25:17.043Z,8.35
2019-03-21T22:27:46.157Z,9.25
2019-03-21T22:30:21.496Z,10.70
2019-03-21T22:32:50.495Z,9.33
2019-03-21T22:35:22.644Z,9.35
2019-03-21T22:37:51.836Z,9.30
2019-03-21T22:40:20.824Z,6.95
2019-03-21T22:42:49.714Z,7.47
2019-03-21T22:45:19.756Z,6.70
2019-03-21T22:47:50.583Z,7.15
2019-03-21T22:50:20.288Z,6.33
2019-03-21T22:52:49.476Z,8.55
2019-03-21T22:55:18.366Z,9.58
2019-03-21T22:57:47.682Z,10.35
2019-03-21T23:00:23.034Z,7.45
2019-03-21T23:02:52.178Z,7.85
2019-03-21T23:05:24.792Z,9.78
2019-03-21T23:07:53.894Z,8.90
2019-03-21T23:10:22.992Z,7.92
2019-03-21T23:12:52.082Z,9.18
2019-03-21T23:15:21.183Z,8.30
2019-03-21T23:17:50.166Z,7.97
2019-03-21T23:20:19.366Z,8.48
2019-03-21T23:22:48.676Z,8.85
2019-03-21T23:25:17.771Z,8.75
2019-03-21T23:27:46.757Z,9.60
2019-03-21T23:30:18.286Z,8.63
2019-03-21T23:32:49.351Z,9.10
2019-03-21T23:35:18.434Z,10.00
2019-03-21T23:37:47.431Z,8.85
2019-03-21T23:40:17.139Z,8.98
2019-03-21T23:42:46.246Z,10.32
2019-03-21T23:45:15.536Z,10.58
2019-03-21T23:47:44.636Z,10.68
2019-03-21T23:50:14.944Z,10.00
2019-03-21T23:52:44.037Z,11.33
2019-03-21T23:55:13.458Z,8.93
2019-03-21T23:57:42.775Z,9.50
